sensor_id;sensor_type;location;lat;lon;timestamp;pressure;altitude;pressure_sealevel;temperature;humidity
71791;BME280;59638;52.126;5.434;2023-08-20T00:02:23;102128.28;;;16.84;100.00
71791;BME280;59638;52.126;5.434;2023-08-20T00:04:49;102131.66;;;16.76;100.00
71791;BME280;59638;52.126;5.434;2023-08-20T00:07:17;102133.78;;;16.73;100.00
71791;BME280;59638;52.126;5.434;2023-08-20T00:09:45;102133.09;;;16.71;100.00
71791;BME280;59638;52.126;5.434;2023-08-20T00:12:11;102134.22;;;16.58;100.00
71791;BME280;59638;52.126;5.434;2023-08-20T00:14:57;102139.03;;;16.45;100.00
71791;BME280;59638;52.126;5.434;2023-08-20T00:17:25;102142.97;;;16.41;100.00
71791;BME280;59638;52.126;5.434;2023-08-20T00:19:54;102155.88;;;16.36;100.00
71791;BME280;59638;52.126;5.434;2023-08-20T00:22:22;102155.06;;;16.26;100.00
71791;BME280;59638;52.126;5.434;2023-08-20T00:24:53;102150.56;;;16.17;100.00
71791;BME280;59638;52.126;5.434;2023-08-20T00:27:20;102146.69;;;16.11;100.00
71791;BME280;59638;52.126;5.434;2023-08-20T00:29:47;102142.47;;;15.99;100.00
71791;BME280;59638;52.126;5.434;2023-08-20T00:32:14;102138.56;;;15.93;100.00
71791;BME280;59638;52.126;5.434;2023-08-20T00:34:41;102138.25;;;15.96;100.00
71791;BME280;59638;52.126;5.434;2023-08-20T00:37:08;102149.50;;;16.00;100.00
71791;BME280;59638;52.126;5.434;2023-08-20T00:39:34;102159.44;;;15.88;100.00
71791;BME280;59638;52.126;5.434;2023-08-20T00:42:01;102159.00;;;15.83;100.00
71791;BME280;59638;52.126;5.434;2023-08-20T00:44:28;102155.38;;;15.84;100.00
71791;BME280;59638;52.126;5.434;2023-08-20T00:46:55;102161.84;;;15.91;100.00
71791;BME280;59638;52.126;5.434;2023-08-20T00:49:22;102166.72;;;15.96;100.00
71791;BME280;59638;52.126;5.434;2023-08-20T00:51:50;102171.06;;;16.07;100.00
71791;BME280;59638;52.126;5.434;2023-08-20T00:54:17;102175.25;;;16.09;100.00
71791;BME280;59638;52.126;5.434;2023-08-20T00:56:44;102181.44;;;16.10;100.00
71791;BME280;59638;52.126;5.434;2023-08-20T00:59:11;102191.81;;;16.13;100.00
71791;BME280;59638;52.126;5.434;2023-08-20T01:01:37;102186.19;;;16.16;100.00
71791;BME280;59638;52.126;5.434;2023-08-20T01:04:04;102189.97;;;16.23;100.00
71791;BME280;59638;52.126;5.434;2023-08-20T01:09:29;102194.16;;;16.35;100.00
71791;BME280;59638;52.126;5.434;2023-08-20T01:12:03;102190.13;;;16.31;100.00
71791;BME280;59638;52.126;5.434;2023-08-20T01:14:32;102181.41;;;16.29;100.00
71791;BME280;59638;52.126;5.434;2023-08-20T01:16:59;102182.69;;;16.25;100.00
71791;BME280;59638;52.126;5.434;2023-08-20T01:19:25;102193.50;;;16.14;100.00
71791;BME280;59638;52.126;5.434;2023-08-20T01:30:04;102224.03;;;15.90;100.00
71791;BME280;59638;52.126;5.434;2023-08-20T01:32:31;102222.94;;;15.93;100.00
71791;BME280;59638;52.126;5.434;2023-08-20T01:34:59;102215.38;;;15.98;100.00
71791;BME280;59638;52.126;5.434;2023-08-20T01:37:25;102219.84;;;16.07;100.00
71791;BME280;59638;52.126;5.434;2023-08-20T01:39:51;102218.47;;;16.13;100.00
71791;BME280;59638;52.126;5.434;2023-08-20T01:42:18;102214.25;;;16.20;100.00
71791;BME280;59638;52.126;5.434;2023-08-20T01:44:45;102217.91;;;16.19;100.00
71791;BME280;59638;52.126;5.434;2023-08-20T01:47:11;102224.47;;;16.15;100.00
71791;BME280;59638;52.126;5.434;2023-08-20T01:49:37;102222.94;;;16.12;100.00
71791;BME280;59638;52.126;5.434;2023-08-20T01:52:04;102220.69;;;16.08;100.00
71791;BME280;59638;52.126;5.434;2023-08-20T01:54:31;102223.47;;;15.96;100.00
71791;BME280;59638;52.126;5.434;2023-08-20T01:56:57;102231.06;;;15.91;100.00
71791;BME280;59638;52.126;5.434;2023-08-20T01:59:24;102233.56;;;15.83;100.00
71791;BME280;59638;52.126;5.434;2023-08-20T02:01:50;102229.78;;;15.76;100.00
71791;BME280;59638;52.126;5.434;2023-08-20T02:04:17;102228.38;;;15.72;100.00
71791;BME280;59638;52.126;5.434;2023-08-20T02:06:43;102234.81;;;15.69;100.00
71791;BME280;59638;52.126;5.434;2023-08-20T02:09:10;102239.16;;;15.70;100.00
71791;BME280;59638;52.126;5.434;2023-08-20T02:11:36;102235.63;;;15.70;100.00
71791;BME280;59638;52.126;5.434;2023-08-20T02:14:03;102236.63;;;15.69;100.00
71791;BME280;59638;52.126;5.434;2023-08-20T02:16:29;102232.28;;;15.68;100.00
71791;BME280;59638;52.126;5.434;2023-08-20T02:18:56;102229.63;;;15.68;100.00
71791;BME280;59638;52.126;5.434;2023-08-20T02:21:22;102225.44;;;15.65;100.00
71791;BME280;59638;52.126;5.434;2023-08-20T02:23:49;102224.84;;;15.62;100.00
71791;BME280;59638;52.126;5.434;2023-08-20T02:26:15;102229.69;;;15.57;100.00
71791;BME280;59638;52.126;5.434;2023-08-20T02:28:42;102232.06;;;15.50;100.00
71791;BME280;59638;52.126;5.434;2023-08-20T02:31:08;102221.84;;;15.45;100.00
71791;BME280;59638;52.126;5.434;2023-08-20T02:33:35;102211.59;;;15.41;100.00
71791;BME280;59638;52.126;5.434;2023-08-20T02:36:03;102220.97;;;15.35;100.00
71791;BME280;59638;52.126;5.434;2023-08-20T02:38:30;102222.19;;;15.31;100.00
71791;BME280;59638;52.126;5.434;2023-08-20T02:40:56;102211.25;;;15.24;100.00
71791;BME280;59638;52.126;5.434;2023-08-20T02:43:23;102209.00;;;15.20;100.00
71791;BME280;59638;52.126;5.434;2023-08-20T02:45:50;102200.59;;;15.15;100.00
71791;BME280;59638;52.126;5.434;2023-08-20T02:48:17;102205.22;;;15.13;100.00
71791;BME280;59638;52.126;5.434;2023-08-20T02:50:44;102195.53;;;15.12;100.00
71791;BME280;59638;52.126;5.434;2023-08-20T02:53:11;102200.69;;;15.04;100.00
71791;BME280;59638;52.126;5.434;2023-08-20T02:55:37;102196.47;;;15.01;100.00
71791;BME280;59638;52.126;5.434;2023-08-20T02:58:04;102196.16;;;14.94;100.00
71791;BME280;59638;52.126;5.434;2023-08-20T03:00:33;102199.66;;;14.95;100.00
71791;BME280;59638;52.126;5.434;2023-08-20T03:03:00;102202.47;;;14.93;100.00
71791;BME280;59638;52.126;5.434;2023-08-20T03:05:29;102203.00;;;14.87;100.00
71791;BME280;59638;52.126;5.434;2023-08-20T03:07:55;102202.53;;;14.82;100.00
71791;BME280;59638;52.126;5.434;2023-08-20T03:10:22;102209.94;;;14.79;100.00
71791;BME280;59638;52.126;5.434;2023-08-20T03:12:48;102208.84;;;14.81;100.00
71791;BME280;59638;52.126;5.434;2023-08-20T03:15:15;102210.19;;;14.76;100.00
71791;BME280;59638;52.126;5.434;2023-08-20T03:17:41;102202.94;;;14.78;100.00
71791;BME280;59638;52.126;5.434;2023-08-20T03:20:08;102209.09;;;14.78;100.00
71791;BME280;59638;52.126;5.434;2023-08-20T03:22:36;102212.81;;;14.66;100.00
71791;BME280;59638;52.126;5.434;2023-08-20T03:25:03;102212.88;;;14.55;100.00
71791;BME280;59638;52.126;5.434;2023-08-20T03:27:30;102202.50;;;14.52;100.00
71791;BME280;59638;52.126;5.434;2023-08-20T03:29:57;102208.25;;;14.57;100.00
71791;BME280;59638;52.126;5.434;2023-08-20T03:32:23;102215.53;;;14.55;100.00
71791;BME280;59638;52.126;5.434;2023-08-20T03:34:50;102212.69;;;14.47;100.00
71791;BME280;59638;52.126;5.434;2023-08-20T03:37:16;102214.59;;;14.45;100.00
71791;BME280;59638;52.126;5.434;2023-08-20T03:39:43;102218.91;;;14.46;100.00
71791;BME280;59638;52.126;5.434;2023-08-20T03:42:09;102229.66;;;14.55;100.00
71791;BME280;59638;52.126;5.434;2023-08-20T03:44:36;102228.53;;;14.58;100.00
71791;BME280;59638;52.126;5.434;2023-08-20T03:47:02;102229.06;;;14.52;100.00
71791;BME280;59638;52.126;5.434;2023-08-20T03:49:30;102236.34;;;14.50;100.00
71791;BME280;59638;52.126;5.434;2023-08-20T03:51:57;102226.69;;;14.49;100.00
71791;BME280;59638;52.126;5.434;2023-08-20T03:54:23;102227.16;;;14.54;100.00
71791;BME280;59638;52.126;5.434;2023-08-20T03:56:50;102237.25;;;14.60;100.00
71791;BME280;59638;52.126;5.434;2023-08-20T03:59:16;102236.94;;;14.53;100.00
71791;BME280;59638;52.126;5.434;2023-08-20T04:01:42;102243.81;;;14.45;100.00
71791;BME280;59638;52.126;5.434;2023-08-20T04:04:09;102247.22;;;14.47;100.00
71791;BME280;59638;52.126;5.434;2023-08-20T04:06:35;102249.38;;;14.53;100.00
71791;BME280;59638;52.126;5.434;2023-08-20T04:09:02;102250.06;;;14.55;100.00
71791;BME280;59638;52.126;5.434;2023-08-20T04:11:29;102252.28;;;14.50;100.00
71791;BME280;59638;52.126;5.434;2023-08-20T04:13:55;102259.75;;;14.45;100.00
71791;BME280;59638;52.126;5.434;2023-08-20T04:16:21;102264.88;;;14.36;100.00
71791;BME280;59638;52.126;5.434;2023-08-20T04:18:48;102256.91;;;14.36;100.00
71791;BME280;59638;52.126;5.434;2023-08-20T04:21:14;102254.38;;;14.35;100.00
71791;BME280;59638;52.126;5.434;2023-08-20T04:23:41;102262.47;;;14.33;100.00
71791;BME280;59638;52.126;5.434;2023-08-20T04:26:07;102266.81;;;14.34;100.00
71791;BME280;59638;52.126;5.434;2023-08-20T04:28:34;102267.78;;;14.33;100.00
71791;BME280;59638;52.126;5.434;2023-08-20T04:31:00;102269.47;;;14.34;100.00
71791;BME280;59638;52.126;5.434;2023-08-20T04:33:27;102268.88;;;14.31;100.00
71791;BME280;59638;52.126;5.434;2023-08-20T04:35:54;102271.38;;;14.32;100.00
71791;BME280;59638;52.126;5.434;2023-08-20T04:38:20;102278.16;;;14.36;100.00
71791;BME280;59638;52.126;5.434;2023-08-20T04:40:47;102272.59;;;14.39;100.00
71791;BME280;59638;52.126;5.434;2023-08-20T04:43:14;102271.34;;;14.43;100.00
71791;BME280;59638;52.126;5.434;2023-08-20T04:45:41;102272.06;;;14.46;100.00
71791;BME280;59638;52.126;5.434;2023-08-20T04:48:08;102271.13;;;14.47;100.00
71791;BME280;59638;52.126;5.434;2023-08-20T04:50:35;102273.53;;;14.50;100.00
71791;BME280;59638;52.126;5.434;2023-08-20T04:53:02;102282.94;;;14.54;100.00
71791;BME280;59638;52.126;5.434;2023-08-20T04:55:28;102278.06;;;14.59;100.00
71791;BME280;59638;52.126;5.434;2023-08-20T04:57:55;102278.94;;;14.59;100.00
71791;BME280;59638;52.126;5.434;2023-08-20T05:00:22;102280.00;;;14.57;100.00
71791;BME280;59638;52.126;5.434;2023-08-20T05:02:48;102290.91;;;14.54;100.00
71791;BME280;59638;52.126;5.434;2023-08-20T05:05:15;102292.84;;;14.52;100.00
71791;BME280;59638;52.126;5.434;2023-08-20T05:07:42;102290.91;;;14.54;100.00
71791;BME280;59638;52.126;5.434;2023-08-20T05:10:08;102291.63;;;14.56;100.00
71791;BME280;59638;52.126;5.434;2023-08-20T05:12:36;102290.66;;;14.57;100.00
71791;BME280;59638;52.126;5.434;2023-08-20T05:15:03;102294.00;;;14.59;100.00
71791;BME280;59638;52.126;5.434;2023-08-20T05:17:30;102300.75;;;14.63;100.00
71791;BME280;59638;52.126;5.434;2023-08-20T05:19:56;102299.78;;;14.64;100.00
71791;BME280;59638;52.126;5.434;2023-08-20T05:22:23;102294.00;;;14.59;100.00
71791;BME280;59638;52.126;5.434;2023-08-20T05:24:49;102298.75;;;14.55;100.00
71791;BME280;59638;52.126;5.434;2023-08-20T05:27:16;102298.16;;;14.52;100.00
71791;BME280;59638;52.126;5.434;2023-08-20T05:29:43;102301.78;;;14.51;100.00
71791;BME280;59638;52.126;5.434;2023-08-20T05:32:10;102301.06;;;14.49;100.00
71791;BME280;59638;52.126;5.434;2023-08-20T05:34:37;102292.84;;;14.52;100.00
71791;BME280;59638;52.126;5.434;2023-08-20T05:37:03;102295.25;;;14.55;100.00
71791;BME280;59638;52.126;5.434;2023-08-20T05:39:30;102299.59;;;14.56;100.00
71791;BME280;59638;52.126;5.434;2023-08-20T05:42:03;102302.72;;;14.61;100.00
71791;BME280;59638;52.126;5.434;2023-08-20T05:44:29;102304.13;;;14.65;100.00
71791;BME280;59638;52.126;5.434;2023-08-20T05:46:56;102303.63;;;14.71;100.00
71791;BME280;59638;52.126;5.434;2023-08-20T05:49:22;102308.19;;;14.80;100.00
71791;BME280;59638;52.126;5.434;2023-08-20T05:51:49;102307.84;;;14.94;100.00
71791;BME280;59638;52.126;5.434;2023-08-20T05:54:15;102297.78;;;15.19;100.00
71791;BME280;59638;52.126;5.434;2023-08-20T05:56:42;102304.34;;;15.45;100.00
71791;BME280;59638;52.126;5.434;2023-08-20T05:59:08;102298.53;;;15.71;100.00
71791;BME280;59638;52.126;5.434;2023-08-20T06:01:35;102297.22;;;15.96;100.00
71791;BME280;59638;52.126;5.434;2023-08-20T06:04:01;102290.22;;;16.24;100.00
71791;BME280;59638;52.126;5.434;2023-08-20T06:06:28;102290.53;;;16.50;100.00
71791;BME280;59638;52.126;5.434;2023-08-20T06:08:55;102295.31;;;16.75;100.00
71791;BME280;59638;52.126;5.434;2023-08-20T06:11:35;102282.88;;;17.03;100.00
71791;BME280;59638;52.126;5.434;2023-08-20T06:14:02;102294.59;;;17.30;100.00
71791;BME280;59638;52.126;5.434;2023-08-20T06:16:29;102296.22;;;17.50;100.00
71791;BME280;59638;52.126;5.434;2023-08-20T06:18:57;102291.50;;;17.72;100.00
71791;BME280;59638;52.126;5.434;2023-08-20T06:21:24;102293.59;;;17.96;100.00
71791;BME280;59638;52.126;5.434;2023-08-20T06:23:50;102291.38;;;18.09;100.00
71791;BME280;59638;52.126;5.434;2023-08-20T06:26:17;102288.44;;;18.30;100.00
71791;BME280;59638;52.126;5.434;2023-08-20T06:28:43;102293.31;;;18.52;100.00
71791;BME280;59638;52.126;5.434;2023-08-20T06:31:10;102287.81;;;18.71;100.00
71791;BME280;59638;52.126;5.434;2023-08-20T06:33:36;102295.19;;;18.95;100.00
71791;BME280;59638;52.126;5.434;2023-08-20T06:36:02;102299.81;;;19.19;100.00
71791;BME280;59638;52.126;5.434;2023-08-20T06:38:29;102290.25;;;19.43;100.00
71791;BME280;59638;52.126;5.434;2023-08-20T06:40:56;102302.38;;;19.55;100.00
71791;BME280;59638;52.126;5.434;2023-08-20T06:43:22;102301.41;;;19.64;100.00
71791;BME280;59638;52.126;5.434;2023-08-20T06:45:49;102305.13;;;19.79;100.00
71791;BME280;59638;52.126;5.434;2023-08-20T06:48:15;102303.72;;;20.01;100.00
71791;BME280;59638;52.126;5.434;2023-08-20T06:50:42;102305.25;;;20.36;100.00
71791;BME280;59638;52.126;5.434;2023-08-20T06:53:09;102297.25;;;20.61;100.00
71791;BME280;59638;52.126;5.434;2023-08-20T06:55:35;102292.53;;;20.79;100.00
71791;BME280;59638;52.126;5.434;2023-08-20T06:58:02;102300.06;;;21.00;99.19
71791;BME280;59638;52.126;5.434;2023-08-20T07:00:29;102297.38;;;21.08;98.07
71791;BME280;59638;52.126;5.434;2023-08-20T07:02:55;102296.97;;;21.28;96.56
71791;BME280;59638;52.126;5.434;2023-08-20T07:05:22;102290.69;;;21.60;96.67
71791;BME280;59638;52.126;5.434;2023-08-20T07:07:48;102295.34;;;21.66;94.67
71791;BME280;59638;52.126;5.434;2023-08-20T07:10:15;102291.69;;;21.90;93.33
71791;BME280;59638;52.126;5.434;2023-08-20T07:12:41;102287.84;;;22.15;91.76
71791;BME280;59638;52.126;5.434;2023-08-20T07:15:08;102283.34;;;22.53;91.30
71791;BME280;59638;52.126;5.434;2023-08-20T07:17:34;102294.56;;;22.57;89.80
71791;BME280;59638;52.126;5.434;2023-08-20T07:20:01;102291.25;;;22.93;88.72
71791;BME280;59638;52.126;5.434;2023-08-20T07:22:29;102290.63;;;23.20;85.82
71791;BME280;59638;52.126;5.434;2023-08-20T07:24:55;102302.03;;;23.37;87.12
71791;BME280;59638;52.126;5.434;2023-08-20T07:27:22;102303.97;;;23.43;82.79
71791;BME280;59638;52.126;5.434;2023-08-20T07:29:48;102308.44;;;23.36;84.11
71791;BME280;59638;52.126;5.434;2023-08-20T07:32:15;102315.59;;;23.29;82.81
71791;BME280;59638;52.126;5.434;2023-08-20T07:34:41;102306.41;;;23.38;83.80
71791;BME280;59638;52.126;5.434;2023-08-20T07:37:08;102318.94;;;23.60;82.33
71791;BME280;59638;52.126;5.434;2023-08-20T07:39:34;102307.97;;;23.77;80.53
71791;BME280;59638;52.126;5.434;2023-08-20T07:42:01;102309.41;;;23.94;82.05
71791;BME280;59638;52.126;5.434;2023-08-20T07:44:27;102322.91;;;24.15;79.46
71791;BME280;59638;52.126;5.434;2023-08-20T07:46:54;102315.84;;;24.14;78.41
71791;BME280;59638;52.126;5.434;2023-08-20T07:49:21;102322.78;;;24.02;80.57
71791;BME280;59638;52.126;5.434;2023-08-20T07:51:47;102324.28;;;24.26;80.71
71791;BME280;59638;52.126;5.434;2023-08-20T07:54:14;102333.94;;;24.35;78.32
71791;BME280;59638;52.126;5.434;2023-08-20T07:56:41;102321.78;;;24.67;77.07
71791;BME280;59638;52.126;5.434;2023-08-20T07:59:07;102318.81;;;25.12;77.05
71791;BME280;59638;52.126;5.434;2023-08-20T08:01:34;102316.41;;;25.24;73.08
71791;BME280;59638;52.126;5.434;2023-08-20T08:04:00;102329.19;;;25.43;72.92
71791;BME280;59638;52.126;5.434;2023-08-20T08:06:27;102316.31;;;25.93;69.81
71791;BME280;59638;52.126;5.434;2023-08-20T08:08:53;102326.22;;;26.80;70.09
71791;BME280;59638;52.126;5.434;2023-08-20T08:11:20;102325.44;;;27.71;66.04
71791;BME280;59638;52.126;5.434;2023-08-20T08:13:46;102324.31;;;28.23;64.32
71791;BME280;59638;52.126;5.434;2023-08-20T08:16:13;102326.47;;;28.71;59.03
71791;BME280;59638;52.126;5.434;2023-08-20T08:18:39;102342.09;;;28.76;59.33
71791;BME280;59638;52.126;5.434;2023-08-20T08:21:06;102337.72;;;28.50;61.53
71791;BME280;59638;52.126;5.434;2023-08-20T08:23:32;102335.94;;;28.37;57.38
71791;BME280;59638;52.126;5.434;2023-08-20T08:25:59;102339.38;;;28.51;59.85
71791;BME280;59638;52.126;5.434;2023-08-20T08:28:25;102344.94;;;28.87;57.45
71791;BME280;59638;52.126;5.434;2023-08-20T08:30:52;102343.44;;;28.91;58.09
71791;BME280;59638;52.126;5.434;2023-08-20T08:33:18;102341.16;;;28.88;55.42
71791;BME280;59638;52.126;5.434;2023-08-20T08:35:45;102343.94;;;29.25;54.50
71791;BME280;59638;52.126;5.434;2023-08-20T08:38:11;102341.66;;;29.65;54.36
71791;BME280;59638;52.126;5.434;2023-08-20T08:40:40;102336.06;;;29.90;52.84
71791;BME280;59638;52.126;5.434;2023-08-20T08:43:08;102333.09;;;29.62;51.77
71791;BME280;59638;52.126;5.434;2023-08-20T08:45:36;102342.09;;;30.11;54.41
71791;BME280;59638;52.126;5.434;2023-08-20T08:48:03;102338.97;;;30.49;52.32
71791;BME280;59638;52.126;5.434;2023-08-20T08:50:31;102340.03;;;30.36;51.18
71791;BME280;59638;52.126;5.434;2023-08-20T08:52:58;102348.63;;;30.21;51.26
71791;BME280;59638;52.126;5.434;2023-08-20T08:55:25;102346.56;;;30.47;50.70
71791;BME280;59638;52.126;5.434;2023-08-20T08:57:51;102346.69;;;30.64;51.14
71791;BME280;59638;52.126;5.434;2023-08-20T09:00:18;102346.41;;;30.72;48.45
71791;BME280;59638;52.126;5.434;2023-08-20T09:02:44;102342.22;;;30.57;52.39
71791;BME280;59638;52.126;5.434;2023-08-20T09:05:15;102337.38;;;31.06;48.62
71791;BME280;59638;52.126;5.434;2023-08-20T09:07:43;102341.34;;;30.33;51.94
71791;BME280;59638;52.126;5.434;2023-08-20T09:10:10;102340.59;;;30.26;47.82
71791;BME280;59638;52.126;5.434;2023-08-20T09:12:37;102333.72;;;30.24;49.96
71791;BME280;59638;52.126;5.434;2023-08-20T09:15:09;102345.25;;;30.49;49.38
71791;BME280;59638;52.126;5.434;2023-08-20T09:17:36;102334.63;;;30.59;48.10
71791;BME280;59638;52.126;5.434;2023-08-20T09:20:03;102337.41;;;30.29;48.01
71791;BME280;59638;52.126;5.434;2023-08-20T09:22:30;102335.66;;;30.35;48.74
71791;BME280;59638;52.126;5.434;2023-08-20T09:24:57;102337.22;;;30.54;48.12
71791;BME280;59638;52.126;5.434;2023-08-20T09:27:24;102336.16;;;30.55;45.97
71791;BME280;59638;52.126;5.434;2023-08-20T09:29:53;102332.88;;;30.12;47.39
71791;BME280;59638;52.126;5.434;2023-08-20T09:32:24;102343.38;;;30.38;48.09
71791;BME280;59638;52.126;5.434;2023-08-20T09:34:54;102337.38;;;30.83;47.80
71791;BME280;59638;52.126;5.434;2023-08-20T09:37:23;102339.31;;;30.71;45.93
71791;BME280;59638;52.126;5.434;2023-08-20T09:39:50;102348.53;;;30.81;44.82
71791;BME280;59638;52.126;5.434;2023-08-20T09:42:17;102334.66;;;31.06;44.48
71791;BME280;59638;52.126;5.434;2023-08-20T09:44:45;102335.22;;;31.44;43.66
71791;BME280;59638;52.126;5.434;2023-08-20T09:47:16;102339.16;;;31.76;44.41
71791;BME280;59638;52.126;5.434;2023-08-20T09:49:44;102348.06;;;32.12;42.08
71791;BME280;59638;52.126;5.434;2023-08-20T09:52:15;102341.28;;;31.86;42.84
71791;BME280;59638;52.126;5.434;2023-08-20T09:55:08;102334.69;;;31.99;45.68
71791;BME280;59638;52.126;5.434;2023-08-20T09:57:39;102350.91;;;32.34;41.69
71791;BME280;59638;52.126;5.434;2023-08-20T10:00:11;102343.03;;;31.92;42.81
71791;BME280;59638;52.126;5.434;2023-08-20T10:02:40;102341.91;;;32.05;42.38
71791;BME280;59638;52.126;5.434;2023-08-20T10:05:08;102339.78;;;32.24;42.31
71791;BME280;59638;52.126;5.434;2023-08-20T10:07:36;102345.13;;;32.81;39.42
71791;BME280;59638;52.126;5.434;2023-08-20T10:10:07;102346.56;;;32.50;43.19
71791;BME280;59638;52.126;5.434;2023-08-20T10:12:35;102353.91;;;32.99;38.07
71791;BME280;59638;52.126;5.434;2023-08-20T10:15:03;102347.13;;;32.68;40.89
71791;BME280;59638;52.126;5.434;2023-08-20T10:17:31;102356.22;;;32.74;40.94
71791;BME280;59638;52.126;5.434;2023-08-20T10:20:01;102350.56;;;33.14;38.15
71791;BME280;59638;52.126;5.434;2023-08-20T10:22:49;102359.72;;;33.03;43.90
71791;BME280;59638;52.126;5.434;2023-08-20T10:25:23;102350.06;;;33.17;40.08
71791;BME280;59638;52.126;5.434;2023-08-20T10:27:51;102344.25;;;33.74;39.30
71791;BME280;59638;52.126;5.434;2023-08-20T10:30:18;102342.94;;;34.04;38.76
71791;BME280;59638;52.126;5.434;2023-08-20T10:32:57;102338.84;;;34.39;37.62
71791;BME280;59638;52.126;5.434;2023-08-20T10:35:28;102347.38;;;34.10;36.50
71791;BME280;59638;52.126;5.434;2023-08-20T10:38:06;102341.22;;;33.49;39.90
71791;BME280;59638;52.126;5.434;2023-08-20T10:40:54;102339.00;;;33.73;39.29
71791;BME280;59638;52.126;5.434;2023-08-20T10:46:04;102343.19;;;33.80;33.96
71791;BME280;59638;52.126;5.434;2023-08-20T10:48:37;102337.38;;;33.99;33.54
71791;BME280;59638;52.126;5.434;2023-08-20T10:51:15;102340.41;;;33.32;35.50
71791;BME280;59638;52.126;5.434;2023-08-20T10:54:06;102347.59;;;33.16;35.29
71791;BME280;59638;52.126;5.434;2023-08-20T10:56:46;102347.94;;;31.38;41.22
71791;BME280;59638;52.126;5.434;2023-08-20T11:01:43;102340.72;;;34.01;34.41
71791;BME280;59638;52.126;5.434;2023-08-20T11:04:10;102329.13;;;34.53;35.54
71791;BME280;59638;52.126;5.434;2023-08-20T11:06:38;102332.38;;;35.34;37.04
71791;BME280;59638;52.126;5.434;2023-08-20T11:09:05;102336.69;;;35.88;34.48
71791;BME280;59638;52.126;5.434;2023-08-20T11:11:32;102334.28;;;36.68;31.86
71791;BME280;59638;52.126;5.434;2023-08-20T11:14:05;102340.69;;;34.97;32.02
71791;BME280;59638;52.126;5.434;2023-08-20T11:16:36;102337.84;;;34.45;34.90
71791;BME280;59638;52.126;5.434;2023-08-20T11:19:04;102334.72;;;33.38;38.61
71791;BME280;59638;52.126;5.434;2023-08-20T11:21:35;102337.59;;;34.51;33.79
71791;BME280;59638;52.126;5.434;2023-08-20T11:24:02;102330.38;;;34.77;32.44
71791;BME280;59638;52.126;5.434;2023-08-20T11:26:29;102340.66;;;32.74;36.17
71791;BME280;59638;52.126;5.434;2023-08-20T11:28:56;102341.47;;;30.09;45.47
71791;BME280;59638;52.126;5.434;2023-08-20T11:31:22;102334.88;;;30.70;40.46
71791;BME280;59638;52.126;5.434;2023-08-20T11:33:49;102328.88;;;30.26;42.83
71791;BME280;59638;52.126;5.434;2023-08-20T11:36:16;102321.47;;;32.36;40.02
71791;BME280;59638;52.126;5.434;2023-08-20T11:38:52;102326.50;;;33.55;35.61
71791;BME280;59638;52.126;5.434;2023-08-20T11:41:20;102323.88;;;32.20;41.11
71791;BME280;59638;52.126;5.434;2023-08-20T11:43:47;102323.34;;;33.68;36.36
71791;BME280;59638;52.126;5.434;2023-08-20T11:46:14;102322.75;;;32.33;38.84
71791;BME280;59638;52.126;5.434;2023-08-20T11:49:01;102319.69;;;31.73;37.81
71791;BME280;59638;52.126;5.434;2023-08-20T11:51:28;102318.75;;;31.67;39.92
71791;BME280;59638;52.126;5.434;2023-08-20T11:53:56;102325.56;;;32.55;40.79
71791;BME280;59638;52.126;5.434;2023-08-20T11:56:23;102305.13;;;31.67;38.29
71791;BME280;59638;52.126;5.434;2023-08-20T11:58:50;102313.84;;;30.35;41.29
71791;BME280;59638;52.126;5.434;2023-08-20T12:01:20;102301.75;;;32.05;37.88
71791;BME280;59638;52.126;5.434;2023-08-20T12:03:46;102299.81;;;29.78;43.52
71791;BME280;59638;52.126;5.434;2023-08-20T12:06:20;102309.06;;;28.54;43.91
71791;BME280;59638;52.126;5.434;2023-08-20T12:08:47;102293.34;;;27.54;48.93
71791;BME280;59638;52.126;5.434;2023-08-20T12:11:13;102295.59;;;26.79;55.04
71791;BME280;59638;52.126;5.434;2023-08-20T12:13:40;102290.59;;;26.83;52.03
71791;BME280;59638;52.126;5.434;2023-08-20T12:16:07;102287.66;;;28.64;45.30
71791;BME280;59638;52.126;5.434;2023-08-20T12:18:33;102297.25;;;29.10;44.48
71791;BME280;59638;52.126;5.434;2023-08-20T12:21:01;102298.31;;;27.64;45.89
71791;BME280;59638;52.126;5.434;2023-08-20T12:23:28;102301.84;;;26.60;51.64
71791;BME280;59638;52.126;5.434;2023-08-20T12:25:55;102311.84;;;26.40;55.62
71791;BME280;59638;52.126;5.434;2023-08-20T12:28:21;102316.56;;;27.95;48.12
71791;BME280;59638;52.126;5.434;2023-08-20T12:30:48;102315.56;;;27.18;47.88
71791;BME280;59638;52.126;5.434;2023-08-20T12:33:15;102317.47;;;26.45;51.11
71791;BME280;59638;52.126;5.434;2023-08-20T12:35:41;102313.31;;;27.73;46.16
71791;BME280;59638;52.126;5.434;2023-08-20T12:38:08;102311.75;;;27.90;49.20
71791;BME280;59638;52.126;5.434;2023-08-20T12:40:34;102322.91;;;28.45;50.44
71791;BME280;59638;52.126;5.434;2023-08-20T12:43:01;102315.84;;;29.31;44.70
71791;BME280;59638;52.126;5.434;2023-08-20T12:45:29;102330.78;;;27.84;50.40
71791;BME280;59638;52.126;5.434;2023-08-20T12:47:56;102332.28;;;26.89;51.01
71791;BME280;59638;52.126;5.434;2023-08-20T12:50:26;102335.19;;;26.67;53.60
71791;BME280;59638;52.126;5.434;2023-08-20T12:52:53;102328.09;;;26.79;49.29
71791;BME280;59638;52.126;5.434;2023-08-20T12:55:19;102324.75;;;27.04;47.82
71791;BME280;59638;52.126;5.434;2023-08-20T12:57:54;102329.16;;;26.59;51.81
71791;BME280;59638;52.126;5.434;2023-08-20T13:00:22;102321.63;;;26.80;53.39
71791;BME280;59638;52.126;5.434;2023-08-20T13:02:48;102312.81;;;27.31;53.98
71791;BME280;59638;52.126;5.434;2023-08-20T13:05:16;102320.44;;;27.61;48.09